createdAt,value
2022-11-22T00:00:53.720Z,99.8
2022-11-22T00:02:10.031Z,99.8
2022-11-22T00:03:26.312Z,99.8
2022-11-22T00:04:42.612Z,99.8
2022-11-22T00:05:58.908Z,99.7
2022-11-22T00:07:15.202Z,99.7
2022-11-22T00:08:31.505Z,99.6
2022-11-22T00:09:47.793Z,99.6
2022-11-22T00:11:04.099Z,99.7
2022-11-22T00:12:19.395Z,99.6
2022-11-22T00:13:35.693Z,99.6
2022-11-22T00:14:51.983Z,99.7
2022-11-22T00:16:08.288Z,99.8
2022-11-22T00:17:24.591Z,99.8
2022-11-22T00:18:40.872Z,99.8
2022-11-22T00:19:57.182Z,99.8
2022-11-22T00:21:13.482Z,99.8
2022-11-22T00:22:29.754Z,99.8
2022-11-22T00:23:46.056Z,99.9
2022-11-22T00:25:02.362Z,99.9
2022-11-22T00:26:18.647Z,100
2022-11-22T00:27:34.935Z,100
2022-11-22T00:28:50.243Z,100
2022-11-22T00:30:06.538Z,100
2022-11-22T00:31:22.840Z,100
2022-11-22T00:32:39.131Z,100
2022-11-22T00:33:55.438Z,100
2022-11-22T00:35:11.741Z,100
2022-11-22T00:36:28.036Z,100
2022-11-22T00:37:44.318Z,99.9
2022-11-22T00:39:00.614Z,99.9
2022-11-22T00:40:16.910Z,99.8
2022-11-22T00:41:33.201Z,99.8
2022-11-22T00:42:49.507Z,99.8
2022-11-22T00:44:05.797Z,99.8
2022-11-22T00:45:21.109Z,99.7
2022-11-22T00:46:37.401Z,99.7
2022-11-22T00:47:53.699Z,99.7
2022-11-22T00:49:09.986Z,99.7
2022-11-22T00:50:26.278Z,99.7
2022-11-22T00:51:42.591Z,99.7
2022-11-22T00:52:58.870Z,99.8
2022-11-22T00:54:15.164Z,99.8
2022-11-22T00:55:31.468Z,99.8
2022-11-22T00:56:47.772Z,99.8
2022-11-22T00:58:04.048Z,99.9
2022-11-22T00:59:20.349Z,99.8
2022-11-22T01:00:36.642Z,99.8
2022-11-22T01:01:51.952Z,99.8
2022-11-22T01:03:08.247Z,99.8
2022-11-22T01:04:24.547Z,99.8
2022-11-22T01:05:40.836Z,99.8
2022-11-22T01:06:57.144Z,99.8
2022-11-22T01:08:13.424Z,99.7
2022-11-22T01:09:29.726Z,99.6
2022-11-22T01:10:46.010Z,99.6
2022-11-22T01:12:02.318Z,99.7
2022-11-22T01:13:18.605Z,99.6
2022-11-22T01:14:34.897Z,99.6
2022-11-22T01:15:51.190Z,99.7
2022-11-22T01:17:07.492Z,99.7
2022-11-22T01:18:22.813Z,99.7
2022-11-22T01:19:39.100Z,99.8
2022-11-22T01:20:55.390Z,99.9
2022-11-22T01:22:11.695Z,99.9
2022-11-22T01:23:27.991Z,99.9
2022-11-22T01:24:44.290Z,99.9
2022-11-22T01:26:00.580Z,99.9
2022-11-22T01:27:16.878Z,99.9
2022-11-22T01:28:33.160Z,99.8
2022-11-22T01:29:49.457Z,99.8
2022-11-22T01:31:05.757Z,99.8
2022-11-22T01:32:22.055Z,99.8
2022-11-22T01:33:38.356Z,99.8
2022-11-22T01:34:53.668Z,99.8
2022-11-22T01:36:09.954Z,99.7
2022-11-22T01:37:26.244Z,99.7
2022-11-22T01:38:42.548Z,99.8
2022-11-22T01:39:58.835Z,99.8
2022-11-22T01:41:15.123Z,99.7
2022-11-22T01:42:31.428Z,99.6
2022-11-22T01:43:47.719Z,99.6
2022-11-22T01:45:04.015Z,99.6
2022-11-22T01:46:20.306Z,99.6
2022-11-22T01:47:36.605Z,99.6
2022-11-22T01:48:52.916Z,99.6
2022-11-22T01:50:09.192Z,99.6
2022-11-22T01:51:24.517Z,99.6
2022-11-22T01:52:40.802Z,99.6
2022-11-22T01:53:57.090Z,99.6
2022-11-22T01:55:13.398Z,99.6
2022-11-22T01:56:29.686Z,99.6
2022-11-22T01:57:45.981Z,99.7
2022-11-22T01:59:01.290Z,99.6
2022-11-22T02:00:17.596Z,99.6
2022-11-22T02:01:33.895Z,99.6
2022-11-22T02:02:50.183Z,99.7
2022-11-22T02:04:06.482Z,99.6
2022-11-22T02:05:22.766Z,99.7
2022-11-22T02:06:39.083Z,99.7
2022-11-22T02:07:55.362Z,99.8
2022-11-22T02:09:11.658Z,99.7
2022-11-22T02:10:27.955Z,99.8
2022-11-22T02:11:44.250Z,99.8
2022-11-22T02:13:00.545Z,99.7
2022-11-22T02:14:16.834Z,99.8
2022-11-22T02:15:32.158Z,99.8
2022-11-22T02:16:48.436Z,99.7
2022-11-22T02:18:04.737Z,99.7
2022-11-22T02:19:21.035Z,99.6
2022-11-22T02:20:37.334Z,99.6
2022-11-22T02:21:53.625Z,99.6
2022-11-22T02:23:09.934Z,99.6
2022-11-22T02:24:26.217Z,99.6
2022-11-22T02:25:42.504Z,99.6
2022-11-22T02:26:58.806Z,99.6
2022-11-22T02:28:15.095Z,99.6
2022-11-22T02:29:31.396Z,99.5
2022-11-22T02:30:47.696Z,99.5
2022-11-22T02:32:03.002Z,99.4
2022-11-22T02:33:19.291Z,99.4
2022-11-22T02:34:35.592Z,99.4
2022-11-22T02:35:51.899Z,99.4
2022-11-22T02:37:08.191Z,99.4
2022-11-22T02:38:24.483Z,99.5
2022-11-22T02:39:40.781Z,99.5
2022-11-22T02:40:57.074Z,99.5
2022-11-22T02:42:13.368Z,99.5
2022-11-22T02:43:29.661Z,99.5
2022-11-22T02:44:45.951Z,99.5
2022-11-22T02:46:02.257Z,99.5
2022-11-22T02:47:18.537Z,99.5
2022-11-22T02:48:33.856Z,99.5
2022-11-22T02:49:50.155Z,99.5
2022-11-22T02:51:06.439Z,99.5
2022-11-22T02:52:22.738Z,99.6
2022-11-22T02:53:39.026Z,99.7
2022-11-22T02:54:55.327Z,99.7
2022-11-22T02:56:11.628Z,99.7
2022-11-22T02:57:27.919Z,99.7
2022-11-22T02:58:44.229Z,99.8
2022-11-22T03:00:00.510Z,99.8
2022-11-22T03:01:16.806Z,99.8
2022-11-22T03:02:33.097Z,99.8
2022-11-22T03:03:49.391Z,99.8
2022-11-22T03:05:04.700Z,99.8
2022-11-22T03:06:21.009Z,99.8
2022-11-22T03:07:37.293Z,99.8
2022-11-22T03:08:53.608Z,99.8
2022-11-22T03:10:09.879Z,99.8
2022-11-22T03:11:26.173Z,99.8
2022-11-22T03:12:42.468Z,99.8
2022-11-22T03:13:58.765Z,99.8
2022-11-22T03:15:15.070Z,99.8
2022-11-22T03:16:31.350Z,99.8
2022-11-22T03:17:47.662Z,99.8
2022-11-22T03:19:03.940Z,99.8
2022-11-22T03:20:20.252Z,99.8
2022-11-22T03:21:35.558Z,99.8
2022-11-22T03:22:51.845Z,99.8
2022-11-22T03:24:08.151Z,99.8
2022-11-22T03:25:24.432Z,99.8
2022-11-22T03:26:40.727Z,99.8
2022-11-22T03:27:57.021Z,99.8
2022-11-22T03:29:13.326Z,99.8
2022-11-22T03:30:29.611Z,99.8
2022-11-22T03:31:45.914Z,99.8
2022-11-22T03:33:02.217Z,99.8
2022-11-22T03:34:18.499Z,99.8
2022-11-22T03:35:34.798Z,99.8
2022-11-22T03:36:51.098Z,99.8
2022-11-22T03:38:06.407Z,100
2022-11-22T03:39:22.700Z,99.8
2022-11-22T03:40:38.991Z,99.8
2022-11-22T03:41:55.288Z,99.8
2022-11-22T03:43:11.580Z,99.8
2022-11-22T03:44:27.881Z,100
2022-11-22T03:45:44.170Z,100
2022-11-22T03:47:00.462Z,100
2022-11-22T03:48:16.765Z,100
2022-11-22T03:49:33.063Z,100
2022-11-22T03:50:49.362Z,100
2022-11-22T03:52:05.652Z,100
2022-11-22T03:53:21.952Z,100
2022-11-22T03:54:37.264Z,100
2022-11-22T03:55:53.547Z,100
2022-11-22T03:57:09.848Z,100
2022-11-22T03:58:26.141Z,100
2022-11-22T03:59:42.428Z,100
2022-11-22T04:00:58.734Z,100
2022-11-22T04:02:15.027Z,100
2022-11-22T04:03:31.313Z,100
2022-11-22T04:04:47.606Z,100
2022-11-22T04:06:03.910Z,100
2022-11-22T04:07:20.203Z,100
2022-11-22T04:08:36.502Z,100
2022-11-22T04:09:52.797Z,100
2022-11-22T04:11:08.102Z,100
2022-11-22T04:12:24.400Z,100
2022-11-22T04:13:40.692Z,100
2022-11-22T04:14:56.990Z,100
2022-11-22T04:16:13.284Z,100
2022-11-22T04:17:29.577Z,100
2022-11-22T04:18:45.889Z,100
2022-11-22T04:20:02.185Z,100
2022-11-22T04:21:18.464Z,100
2022-11-22T04:22:34.762Z,100
2022-11-22T04:23:51.053Z,100
2022-11-22T04:25:07.364Z,100
2022-11-22T04:26:23.652Z,100
2022-11-22T04:27:38.958Z,100
2022-11-22T04:28:55.245Z,100
2022-11-22T04:30:11.548Z,100
2022-11-22T04:31:27.847Z,100
2022-11-22T04:32:44.140Z,100
2022-11-22T04:34:00.437Z,100
2022-11-22T04:35:16.730Z,100
2022-11-22T04:36:33.027Z,99.8
2022-11-22T04:37:49.322Z,99.8
2022-11-22T04:39:05.622Z,99.8
2022-11-22T04:40:21.908Z,99.5
2022-11-22T04:41:38.201Z,99.5
2022-11-22T04:42:54.487Z,99.5
2022-11-22T04:44:09.808Z,99.5
2022-11-22T04:45:26.105Z,99.5
2022-11-22T04:46:42.393Z,99.4
2022-11-22T04:47:58.691Z,99.4
2022-11-22T04:49:14.983Z,99.5
2022-11-22T04:50:31.284Z,99.4
2022-11-22T04:51:47.578Z,99.6
2022-11-22T04:53:03.886Z,99.6
2022-11-22T04:54:20.166Z,99.5
2022-11-22T04:55:36.468Z,99.5
2022-11-22T04:56:52.763Z,99.5
2022-11-22T04:58:09.048Z,99.5
2022-11-22T04:59:25.339Z,99.5
2022-11-22T05:00:40.649Z,99.6
2022-11-22T05:01:56.955Z,99.6
2022-11-22T05:03:13.250Z,99.6
2022-11-22T05:04:29.554Z,99.6
2022-11-22T05:05:45.834Z,99.6
2022-11-22T05:07:02.126Z,99.5
2022-11-22T05:08:18.425Z,99.4
2022-11-22T05:09:34.724Z,99.5
2022-11-22T05:10:51.012Z,99.4
2022-11-22T05:12:07.305Z,99.4
2022-11-22T05:13:23.610Z,99.4
2022-11-22T05:14:39.903Z,99.5
2022-11-22T05:15:56.199Z,99.5
2022-11-22T05:17:11.512Z,99.5
2022-11-22T05:18:27.807Z,99.5
2022-11-22T05:19:44.104Z,99.5
2022-11-22T05:21:00.390Z,99.4
2022-11-22T05:22:16.679Z,99.4
2022-11-22T05:23:32.980Z,99.4
2022-11-22T05:24:49.267Z,99.4
2022-11-22T05:26:05.565Z,99.5
2022-11-22T05:27:21.860Z,99.5
2022-11-22T05:28:38.164Z,99.5
2022-11-22T05:29:54.461Z,99.4
2022-11-22T05:31:10.750Z,99.3
2022-11-22T05:32:27.040Z,99.3
2022-11-22T05:33:42.361Z,99.1
2022-11-22T05:34:58.645Z,99.2
2022-11-22T05:36:14.937Z,99.3
2022-11-22T05:37:31.242Z,99.3
2022-11-22T05:38:47.545Z,99.4
2022-11-22T05:40:03.833Z,99.4
2022-11-22T05:41:20.121Z,99.4
2022-11-22T05:42:36.421Z,99.3
2022-11-22T05:43:52.718Z,99.3
2022-11-22T05:45:09.013Z,99.4
2022-11-22T05:46:25.301Z,99.3
2022-11-22T05:47:41.593Z,99.2
2022-11-22T05:48:57.896Z,99.2
2022-11-22T05:50:13.206Z,99.2
2022-11-22T05:51:29.513Z,99.2
2022-11-22T05:52:45.787Z,99.3
2022-11-22T05:54:02.097Z,99.2
2022-11-22T05:55:18.386Z,99.2
2022-11-22T05:56:34.681Z,99.1
2022-11-22T05:57:50.991Z,99.1
2022-11-22T05:59:07.266Z,99.2
2022-11-22T06:00:23.557Z,99.3
2022-11-22T06:01:39.864Z,99.4
2022-11-22T06:02:56.150Z,99.4
2022-11-22T06:04:12.442Z,99.4
2022-11-22T06:05:28.698Z,99.4
2022-11-22T06:06:43.967Z,99.4
2022-11-22T06:08:00.259Z,99.5
2022-11-22T06:09:16.553Z,99.5
2022-11-22T06:10:32.802Z,99.5
2022-11-22T06:11:49.053Z,99.6
2022-11-22T06:13:05.303Z,99.5
2022-11-22T06:14:20.573Z,99.5
2022-11-22T06:15:36.814Z,99.5
2022-11-22T06:16:53.062Z,99.7
2022-11-22T06:18:09.283Z,99.7
2022-11-22T06:19:25.536Z,99.7
2022-11-22T06:20:41.765Z,99.7
2022-11-22T06:21:58.020Z,99.8
2022-11-22T06:23:14.251Z,99.8
2022-11-22T06:24:30.505Z,99.8
2022-11-22T06:25:46.740Z,99.8
2022-11-22T06:27:02.985Z,99.8
2022-11-22T06:28:19.231Z,99.8
2022-11-22T06:29:35.457Z,99.8
2022-11-22T06:30:50.718Z,99.8
2022-11-22T06:32:06.958Z,99.8
2022-11-22T06:33:23.201Z,99.8
2022-11-22T06:34:39.440Z,99.8
2022-11-22T06:35:55.692Z,99.8
2022-11-22T06:37:11.920Z,99.8
2022-11-22T06:38:28.169Z,99.8
2022-11-22T06:39:44.403Z,99.8
2022-11-22T06:41:00.637Z,99.7
2022-11-22T06:42:16.887Z,99.8
2022-11-22T06:43:33.137Z,99.8
2022-11-22T06:44:49.367Z,99.8
2022-11-22T06:46:05.606Z,99.8
2022-11-22T06:47:20.869Z,99.8
2022-11-22T06:48:37.100Z,99.8
2022-11-22T06:49:53.346Z,99.8
2022-11-22T06:51:09.590Z,99.8
2022-11-22T06:52:25.825Z,99.8
2022-11-22T06:53:42.070Z,100
2022-11-22T06:54:58.306Z,99.8
2022-11-22T06:56:14.550Z,100
2022-11-22T06:57:30.796Z,99.8
2022-11-22T06:58:47.032Z,100
2022-11-22T07:00:03.272Z,100
2022-11-22T07:01:19.522Z,99.8
2022-11-22T07:02:35.754Z,99.8
2022-11-22T07:03:51.018Z,99.8
2022-11-22T07:05:07.265Z,99.7
2022-11-22T07:06:23.501Z,99.7
2022-11-22T07:07:39.737Z,99.6
2022-11-22T07:08:55.981Z,99.6
2022-11-22T07:10:12.220Z,99.6
2022-11-22T07:11:28.455Z,99.6
2022-11-22T07:12:44.699Z,99.6
2022-11-22T07:14:00.957Z,99.6
2022-11-22T07:15:17.182Z,99.6
2022-11-22T07:16:33.426Z,99.6
2022-11-22T07:17:49.663Z,99.6
2022-11-22T07:19:05.909Z,99.6
2022-11-22T07:20:21.162Z,99.6
2022-11-22T07:21:37.413Z,99.5
2022-11-22T07:22:53.642Z,99.5
2022-11-22T07:24:09.886Z,99.2
2022-11-22T07:25:26.125Z,99.1
2022-11-22T07:26:42.365Z,99
2022-11-22T07:27:58.609Z,99
2022-11-22T07:29:14.855Z,98.8
2022-11-22T07:30:31.106Z,98.7
2022-11-22T07:31:47.329Z,98.7
2022-11-22T07:33:03.582Z,98.6
2022-11-22T07:34:19.823Z,98.6
2022-11-22T07:35:36.062Z,98.6
2022-11-22T07:36:51.311Z,98.6
2022-11-22T07:38:07.552Z,98.6
2022-11-22T07:39:23.790Z,98.6
2022-11-22T07:40:40.040Z,98.5
2022-11-22T07:41:56.269Z,98.6
2022-11-22T07:43:12.520Z,98.6
2022-11-22T07:44:28.759Z,98.4
2022-11-22T07:45:45.004Z,98.4
2022-11-22T07:47:01.236Z,98.4
2022-11-22T07:48:17.477Z,98.3
2022-11-22T07:49:33.732Z,98
2022-11-22T07:50:49.959Z,97.8
2022-11-22T07:52:06.205Z,97.8
2022-11-22T07:53:21.453Z,97.6
2022-11-22T07:54:37.691Z,97.5
2022-11-22T07:55:53.935Z,97.2
2022-11-22T07:57:10.177Z,97.1
2022-11-22T07:58:26.423Z,97
2022-11-22T07:59:42.654Z,97
2022-11-22T08:00:58.905Z,97
2022-11-22T08:02:15.150Z,96.9
2022-11-22T08:03:31.383Z,96.7
2022-11-22T08:04:47.638Z,96.6
2022-11-22T08:06:03.873Z,96.4
2022-11-22T08:07:20.111Z,96.3
2022-11-22T08:08:36.341Z,96.2
2022-11-22T08:09:51.600Z,96.1
2022-11-22T08:11:07.858Z,96
2022-11-22T08:12:24.088Z,96
2022-11-22T08:13:40.333Z,95.7
2022-11-22T08:14:56.577Z,95.4
2022-11-22T08:16:12.807Z,95.3
2022-11-22T08:17:29.063Z,95.1
2022-11-22T08:18:45.306Z,95
2022-11-22T08:20:01.531Z,94.8
2022-11-22T08:21:17.777Z,94.5
2022-11-22T08:22:34.022Z,94.5
2022-11-22T08:23:50.253Z,94.5
2022-11-22T08:25:06.489Z,94.2
2022-11-22T08:26:21.749Z,94.1
2022-11-22T08:27:37.991Z,94.1
2022-11-22T08:28:54.234Z,94
2022-11-22T08:30:10.470Z,93.9
2022-11-22T08:31:26.716Z,93.6
2022-11-22T08:32:42.966Z,93.5
2022-11-22T08:33:59.190Z,93.3
2022-11-22T08:35:15.438Z,93.1
2022-11-22T08:36:31.679Z,93.2
2022-11-22T08:37:47.921Z,93
2022-11-22T08:39:04.163Z,93
2022-11-22T08:40:20.411Z,92.7
2022-11-22T08:41:36.649Z,92.7
2022-11-22T08:42:51.895Z,92.4
2022-11-22T08:44:08.143Z,92.3
2022-11-22T08:45:24.385Z,92.2
2022-11-22T08:46:40.627Z,91.9
2022-11-22T08:47:56.880Z,91.9
2022-11-22T08:49:13.097Z,91.5
2022-11-22T08:50:29.349Z,91.5
2022-11-22T08:51:45.590Z,91.4
2022-11-22T08:53:01.817Z,91.2
2022-11-22T08:54:18.073Z,91.4
2022-11-22T08:55:34.312Z,91.4
2022-11-22T08:56:50.546Z,91.1
2022-11-22T08:58:06.781Z,90.8
2022-11-22T08:59:22.037Z,91.1
2022-11-22T09:00:38.289Z,90.8
2022-11-22T09:01:54.530Z,90.9
2022-11-22T09:03:10.764Z,91.2
2022-11-22T09:04:27.013Z,91.4
2022-11-22T09:05:43.255Z,91.5
2022-11-22T09:06:59.484Z,91.5
2022-11-22T09:08:15.727Z,92
2022-11-22T09:09:31.981Z,92
2022-11-22T09:10:48.223Z,92.4
2022-11-22T09:12:04.449Z,92.5
2022-11-22T09:13:20.698Z,92.8
2022-11-22T09:14:36.933Z,93.2
2022-11-22T09:15:52.203Z,93.4
2022-11-22T09:17:08.433Z,93.8
2022-11-22T09:18:24.674Z,93.9
2022-11-22T09:19:40.908Z,94
2022-11-22T09:20:57.158Z,93.9
2022-11-22T09:22:13.397Z,93.9
2022-11-22T09:23:29.642Z,94
2022-11-22T09:24:45.876Z,94.2
2022-11-22T09:26:02.128Z,94
2022-11-22T09:27:18.362Z,94
2022-11-22T09:28:34.592Z,94
2022-11-22T09:29:50.849Z,94.3
2022-11-22T09:31:07.078Z,94.5
2022-11-22T09:32:22.350Z,94.5
2022-11-22T09:33:38.585Z,94.4
2022-11-22T09:34:54.818Z,94.5
2022-11-22T09:36:11.068Z,94
2022-11-22T09:37:27.301Z,94
2022-11-22T09:38:43.543Z,94
2022-11-22T09:39:59.790Z,93.4
2022-11-22T09:41:16.026Z,92.5
2022-11-22T09:42:32.264Z,92.2
2022-11-22T09:43:48.516Z,91.6
2022-11-22T09:45:04.741Z,92.3
2022-11-22T09:46:20.991Z,92.1
2022-11-22T09:47:37.246Z,91.7
2022-11-22T09:48:52.476Z,91.4
2022-11-22T09:50:08.730Z,91.2
2022-11-22T09:51:24.968Z,91.9
2022-11-22T09:52:41.205Z,92.4
2022-11-22T09:53:57.450Z,92.9
2022-11-22T09:55:13.690Z,93.5
2022-11-22T09:56:29.931Z,93.9
2022-11-22T09:57:46.169Z,93.9
2022-11-22T09:59:02.408Z,93.9
2022-11-22T10:00:18.652Z,93.8
2022-11-22T10:01:34.904Z,93.5
2022-11-22T10:02:51.134Z,94
2022-11-22T10:04:07.375Z,94
2022-11-22T10:05:22.641Z,93.9
2022-11-22T10:06:38.871Z,93.8
2022-11-22T10:07:55.113Z,94.1
2022-11-22T10:09:11.353Z,94.3
2022-11-22T10:10:27.605Z,94.3
2022-11-22T10:11:43.846Z,94.3
2022-11-22T10:13:00.080Z,94
2022-11-22T10:14:16.326Z,94.2
2022-11-22T10:15:32.556Z,94.2
2022-11-22T10:16:48.804Z,94.2
2022-11-22T10:18:05.039Z,94.3
2022-11-22T10:19:21.290Z,94.4
2022-11-22T10:20:37.513Z,94
2022-11-22T10:21:52.782Z,94
2022-11-22T10:23:09.013Z,94.6
2022-11-22T10:24:25.260Z,94.4
2022-11-22T10:25:41.500Z,94.4
2022-11-22T10:26:57.740Z,94.6
2022-11-22T10:28:13.993Z,95
2022-11-22T10:29:29.247Z,94.7
2022-11-22T10:30:45.478Z,94.7
2022-11-22T10:32:01.718Z,94.8
2022-11-22T10:33:17.982Z,94.3
2022-11-22T10:34:34.226Z,94.2
2022-11-22T10:35:50.459Z,94.1
2022-11-22T10:37:06.683Z,93.9
2022-11-22T10:38:22.943Z,94
2022-11-22T10:39:39.173Z,94.1
2022-11-22T10:40:55.412Z,94
2022-11-22T10:42:11.651Z,94.2
2022-11-22T10:43:27.890Z,94.1
2022-11-22T10:44:44.142Z,94
2022-11-22T10:45:59.392Z,94.3
2022-11-22T10:47:15.646Z,94.6
2022-11-22T10:48:31.875Z,94.6
2022-11-22T10:49:48.110Z,95
2022-11-22T10:51:04.360Z,94.7
2022-11-22T10:52:20.597Z,94.6
2022-11-22T10:53:36.837Z,94.5
2022-11-22T10:54:53.070Z,94.6
2022-11-22T10:56:09.316Z,94.9
2022-11-22T10:57:25.554Z,95
2022-11-22T10:58:41.799Z,94.5
2022-11-22T10:59:58.033Z,94.5
2022-11-22T11:01:14.284Z,94.5
2022-11-22T11:02:29.535Z,94.2
2022-11-22T11:03:45.789Z,94.4
2022-11-22T11:05:02.020Z,94.2
2022-11-22T11:06:18.278Z,93.9
2022-11-22T11:07:34.502Z,94.2
2022-11-22T11:08:50.738Z,93.8
2022-11-22T11:10:06.987Z,93.6
2022-11-22T11:11:23.233Z,93.7
2022-11-22T11:12:39.471Z,93.8
2022-11-22T11:13:55.705Z,93.9
2022-11-22T11:15:11.940Z,93.5
2022-11-22T11:16:28.184Z,93.4
2022-11-22T11:17:44.432Z,93.2
2022-11-22T11:18:59.689Z,93
2022-11-22T11:20:15.922Z,93.1
2022-11-22T11:21:32.179Z,93.4
2022-11-22T11:22:48.400Z,93.7
2022-11-22T11:24:04.646Z,93.6
2022-11-22T11:25:20.889Z,94
2022-11-22T11:26:37.123Z,93.9
2022-11-22T11:27:53.378Z,94
2022-11-22T11:29:09.616Z,93.8
2022-11-22T11:30:25.843Z,94
2022-11-22T11:31:42.109Z,93.9
2022-11-22T11:32:58.334Z,94.2
2022-11-22T11:34:14.571Z,94
2022-11-22T11:35:29.824Z,94.1
2022-11-22T11:36:46.072Z,94
2022-11-22T11:38:02.318Z,94
2022-11-22T11:39:18.555Z,94.1
2022-11-22T11:40:34.798Z,93.7
2022-11-22T11:41:51.039Z,93.9
2022-11-22T11:43:07.272Z,93.5
2022-11-22T11:44:23.517Z,93.5
2022-11-22T11:45:39.761Z,93.4
2022-11-22T11:46:56.003Z,93.8
2022-11-22T11:48:12.242Z,93.6
2022-11-22T11:49:28.486Z,93.6
2022-11-22T11:50:44.727Z,93.8
2022-11-22T11:52:00.974Z,93.8
2022-11-22T11:53:16.209Z,93.5
2022-11-22T11:54:32.451Z,93.6
2022-11-22T11:55:48.710Z,93.8
2022-11-22T11:57:04.930Z,93.8
2022-11-22T11:58:21.195Z,93.8
2022-11-22T11:59:37.412Z,93.8
2022-11-22T12:00:53.657Z,93.6
2022-11-22T12:02:09.910Z,93.6
2022-11-22T12:03:26.139Z,93.8
2022-11-22T12:04:42.395Z,93.8
2022-11-22T12:05:58.631Z,94.1
2022-11-22T12:07:14.863Z,94.3
2022-11-22T12:08:31.117Z,94.2
2022-11-22T12:09:46.363Z,94.2
2022-11-22T12:11:02.602Z,94.3
2022-11-22T12:12:18.848Z,94.2
2022-11-22T12:13:35.087Z,93.6
2022-11-22T12:14:51.331Z,93.5
2022-11-22T12:16:07.569Z,93.7
2022-11-22T12:17:23.810Z,93.8
2022-11-22T12:18:40.047Z,93.9
2022-11-22T12:19:56.300Z,93.9
2022-11-22T12:21:12.533Z,93.7
2022-11-22T12:22:28.774Z,93.7
2022-11-22T12:23:45.015Z,93.8
2022-11-22T12:25:01.268Z,93.9
2022-11-22T12:26:16.501Z,93.9
2022-11-22T12:27:32.760Z,94
2022-11-22T12:28:49.002Z,93.8
2022-11-22T12:30:05.238Z,94.1
2022-11-22T12:31:21.486Z,94.3
2022-11-22T12:32:37.706Z,94.1
2022-11-22T12:33:53.951Z,94
2022-11-22T12:35:10.198Z,94
2022-11-22T12:36:26.440Z,94
2022-11-22T12:37:42.678Z,93.9
2022-11-22T12:40:15.156Z,94.2
2022-11-22T12:41:31.396Z,94
2022-11-22T12:42:46.652Z,94.2
2022-11-22T12:44:02.899Z,94.2
2022-11-22T12:45:19.138Z,94.2
2022-11-22T12:46:35.378Z,94.3
2022-11-22T12:47:51.609Z,94.3
2022-11-22T12:49:07.854Z,94.4
2022-11-22T12:50:24.109Z,94.5
2022-11-22T12:51:40.337Z,94.5
2022-11-22T12:52:56.580Z,94.4
2022-11-22T12:54:12.813Z,94.5
2022-11-22T12:55:29.065Z,94.6
2022-11-22T12:56:45.304Z,94.6
2022-11-22T12:58:01.539Z,94.7
2022-11-22T12:59:16.799Z,94.6
2022-11-22T13:00:33.041Z,94.6
2022-11-22T13:01:49.284Z,94.6
2022-11-22T13:03:05.521Z,94.6
2022-11-22T13:04:21.760Z,94.6
2022-11-22T13:05:38.017Z,94.6
2022-11-22T13:06:54.257Z,94.7
2022-11-22T13:08:10.482Z,94.7
2022-11-22T13:09:26.723Z,94.7
2022-11-22T13:10:42.969Z,94.8
2022-11-22T13:11:59.205Z,94.6
2022-11-22T13:13:15.456Z,94.6
2022-11-22T13:14:31.697Z,94.6
2022-11-22T13:15:46.950Z,94.5
2022-11-22T13:17:03.185Z,94.4
2022-11-22T13:18:19.431Z,94.5
2022-11-22T13:19:35.667Z,94.5
2022-11-22T13:28:29.367Z,94.5
2022-11-22T13:29:44.625Z,94.7
2022-11-22T13:30:59.873Z,94.7
2022-11-22T13:32:15.139Z,94.8
2022-11-22T13:33:30.399Z,94.7
2022-11-22T13:34:45.657Z,94.7
2022-11-22T13:36:00.916Z,94.7
2022-11-22T13:37:16.173Z,94.8
2022-11-22T13:38:31.429Z,94.8
2022-11-22T13:39:47.669Z,94.9
2022-11-22T13:41:03.921Z,95.2
2022-11-22T13:42:20.154Z,95.3
2022-11-22T13:43:36.386Z,95.2
2022-11-22T13:44:52.642Z,95.2
2022-11-22T13:46:08.875Z,95.2
2022-11-22T13:47:25.125Z,95
2022-11-22T13:48:41.349Z,95.2
2022-11-22T13:49:57.594Z,95.2
2022-11-22T13:51:12.855Z,95.4
2022-11-22T13:52:28.119Z,95.4
2022-11-22T13:53:44.359Z,95.5
2022-11-22T13:55:00.595Z,95.6
2022-11-22T13:56:16.836Z,95.5
2022-11-22T13:57:33.086Z,95.6
2022-11-22T13:58:49.313Z,95.8
2022-11-22T14:00:05.568Z,95.7
2022-11-22T14:01:21.798Z,95.7
2022-11-22T14:02:38.033Z,95.6
2022-11-22T14:03:54.291Z,95.6
2022-11-22T14:05:10.526Z,95.6
2022-11-22T14:06:26.762Z,95.8
2022-11-22T14:07:43.005Z,95.9
2022-11-22T14:08:58.266Z,96
2022-11-22T14:10:14.503Z,96.1
2022-11-22T14:11:30.742Z,96.1
2022-11-22T14:12:46.979Z,96.1
2022-11-22T14:14:03.235Z,96.2
2022-11-22T14:15:19.461Z,96.2
2022-11-22T14:16:35.704Z,96.3
2022-11-22T14:17:50.959Z,96.4
2022-11-22T14:19:06.216Z,96.4
2022-11-22T14:20:22.475Z,96.4
2022-11-22T14:21:38.705Z,96.4
2022-11-22T14:22:54.944Z,96.3
2022-11-22T14:24:11.183Z,96.4
2022-11-22T14:25:27.432Z,96.4
2022-11-22T14:26:43.675Z,96.4
2022-11-22T14:27:59.904Z,96.4
2022-11-22T14:29:16.156Z,96.5
2022-11-22T14:30:32.394Z,96.5
2022-11-22T14:31:48.626Z,96.6
2022-11-22T14:33:04.869Z,96.7
2022-11-22T14:34:21.117Z,96.7
2022-11-22T14:35:36.361Z,96.8
2022-11-22T14:36:52.609Z,97
2022-11-22T14:38:08.857Z,96.9
2022-11-22T14:39:25.085Z,97
2022-11-22T14:40:41.342Z,97
2022-11-22T14:41:57.568Z,96.9
2022-11-22T14:43:13.812Z,96.9
2022-11-22T14:44:29.081Z,97
2022-11-22T14:45:44.343Z,97.1
2022-11-22T14:46:59.596Z,97.1
2022-11-22T14:48:14.857Z,97.2
2022-11-22T14:49:30.117Z,97.3
2022-11-22T14:50:45.370Z,97.3
2022-11-22T14:52:01.615Z,97.5
2022-11-22T14:53:17.866Z,97.5
2022-11-22T14:54:33.116Z,97.5
2022-11-22T14:55:48.374Z,97.7
2022-11-22T14:57:04.612Z,97.7
2022-11-22T14:58:20.854Z,97.8
2022-11-22T14:59:37.101Z,98
2022-11-22T15:00:53.333Z,98.1
2022-11-22T15:02:09.589Z,98
2022-11-22T15:03:25.814Z,98.1
2022-11-22T15:04:42.068Z,98.3
2022-11-22T15:05:58.299Z,98.3
2022-11-22T15:07:14.548Z,98.3
2022-11-22T15:08:30.786Z,98.2
2022-11-22T15:09:47.018Z,98.2
2022-11-22T15:11:03.260Z,98.2
2022-11-22T15:12:18.529Z,98.2
2022-11-22T15:13:34.775Z,98.3
2022-11-22T15:14:51.003Z,98.4
2022-11-22T15:16:07.239Z,98.5
2022-11-22T15:42:46.441Z,98.7
2022-11-22T15:45:18.980Z,98.7
2022-11-22T15:46:35.270Z,98.7
2022-11-22T15:47:50.594Z,98.7
2022-11-22T15:49:05.903Z,98.8
2022-11-22T15:50:22.194Z,98.8
2022-11-22T15:51:38.487Z,98.8
2022-11-22T15:52:54.773Z,98.8
2022-11-22T15:54:11.072Z,98.9
2022-11-22T15:55:27.366Z,98.9
2022-11-22T15:56:43.663Z,99
2022-11-22T15:57:59.962Z,99
2022-11-22T15:59:16.253Z,99
2022-11-22T16:00:32.549Z,99
2022-11-22T16:01:48.850Z,98.9
2022-11-22T16:03:05.146Z,99
2022-11-22T16:04:21.434Z,98.9
2022-11-22T16:05:36.742Z,98.9
2022-11-22T16:06:53.031Z,98.8
2022-11-22T16:08:09.343Z,98.8
2022-11-22T16:09:25.631Z,98.8
2022-11-22T16:10:41.926Z,98.7
2022-11-22T16:11:58.223Z,98.8
2022-11-22T16:13:14.504Z,98.7
2022-11-22T16:14:29.831Z,98.7
2022-11-22T16:15:45.142Z,98.7
2022-11-22T16:17:00.453Z,98.7
2022-11-22T16:18:15.782Z,98.7
2022-11-22T16:19:31.095Z,98.7
2022-11-22T16:20:46.397Z,98.7
2022-11-22T16:22:02.683Z,98.7
2022-11-22T16:23:18.000Z,98.7
2022-11-22T16:24:33.314Z,98.6
2022-11-22T16:25:49.602Z,98.6
2022-11-22T16:27:05.905Z,98.6
2022-11-22T16:28:22.194Z,98.7
2022-11-22T16:29:38.490Z,98.6
2022-11-22T16:30:54.790Z,98.6
2022-11-22T16:32:11.085Z,98.6
2022-11-22T16:33:27.374Z,98.6
2022-11-22T16:34:43.686Z,98.5
2022-11-22T16:35:59.970Z,98.6
2022-11-22T16:37:16.250Z,98.6
2022-11-22T16:38:32.545Z,98.6
2022-11-22T16:39:48.845Z,98.4
2022-11-22T16:41:04.168Z,98.4
2022-11-22T16:42:20.466Z,98.5
2022-11-22T16:43:36.747Z,98.6
2022-11-22T16:44:53.053Z,98.8
2022-11-22T16:46:09.335Z,98.7
2022-11-22T16:47:25.637Z,98.7
2022-11-22T16:48:41.924Z,98.8
2022-11-22T16:49:57.261Z,98.9
2022-11-22T16:51:12.559Z,99
2022-11-22T16:52:28.849Z,99
2022-11-22T16:53:45.141Z,99
2022-11-22T16:55:01.436Z,99
2022-11-22T16:56:17.740Z,99
2022-11-22T16:57:34.031Z,99
2022-11-22T16:58:50.323Z,99
2022-11-22T17:00:06.625Z,98.9
2022-11-22T17:01:22.921Z,98.8
2022-11-22T17:02:39.220Z,98.7
2022-11-22T17:03:55.501Z,98.7
2022-11-22T17:05:11.792Z,98.6
2022-11-22T17:06:28.099Z,98.6
2022-11-22T17:07:43.415Z,98.5
2022-11-22T17:08:59.693Z,98.5
2022-11-22T17:10:16.001Z,98.4
2022-11-22T17:11:32.285Z,98.4
2022-11-22T17:12:48.000Z,98.5
2022-11-22T17:14:04.867Z,98.4
2022-11-22T17:15:21.169Z,98.3
2022-11-22T17:16:36.502Z,98.3
2022-11-22T17:17:51.804Z,98.2
2022-11-22T17:19:08.090Z,98
2022-11-22T17:20:24.388Z,97.9
2022-11-22T17:21:40.693Z,97.9
2022-11-22T17:22:56.982Z,97.8
2022-11-22T17:24:13.273Z,97.8
2022-11-22T17:25:29.566Z,97.8
2022-11-22T17:26:45.858Z,97.7
2022-11-22T17:28:02.163Z,97.6
2022-11-22T17:29:18.441Z,97.7
2022-11-22T17:30:34.759Z,97.7
2022-11-22T17:31:51.038Z,97.7
2022-11-22T17:33:07.335Z,97.7
2022-11-22T17:34:22.641Z,97.6
2022-11-22T17:35:38.945Z,97.6
2022-11-22T17:36:55.234Z,97.7